Time;durP1;ratioP1;P1;durP2;ratioP2;P2;SDS_P1;SDS_P2;PMS_P1;PMS_P2;Temp;Humidity;BMP_temperature;BMP_pressure;BME280_temperature;BME280_humidity;BME280_pressure;Samples;Min_cycle;Max_cycle;Signal;HPM_P1;HPM_P2
2022/12/22 03:26:22;;;;;;;8.30;5.30;;;;;;;4.54;97.82;96328.64;105312;1304;68307;-85
2022/12/22 03:28:58;;;;;;;9.60;5.30;;;;;;;4.47;98.08;96334.48;105465;1299;22518;-85
2022/12/22 03:31:31;;;;;;;10.40;6.00;;;;;;;4.36;97.97;96336.73;105442;1288;24128;-85
2022/12/22 03:34:06;;;;;;;7.60;5.20;;;;;;;4.29;98.41;96341.00;105479;1304;22477;-86
2022/12/22 03:36:39;;;;;;;9.50;6.30;;;;;;;4.22;98.74;96340.86;105307;1305;94836;-85
2022/12/22 03:39:12;;;;;;;10.10;6.10;;;;;;;4.18;98.86;96345.91;105410;1286;22468;-85
2022/12/22 03:47:22;;;;;;;13.50;8.20;;;;;;;4.05;99.22;96349.30;105454;1304;23192;-85
2022/12/22 03:49:56;;;;;;;12.70;7.80;;;;;;;4.02;99.20;96354.84;105413;1275;22516;-85
2022/12/22 03:52:28;;;;;;;9.30;6.30;;;;;;;3.99;99.41;96355.06;105456;1304;25430;-85
2022/12/22 03:55:02;;;;;;;9.20;7.10;;;;;;;3.99;99.33;96351.86;105368;1298;82660;-85
2022/12/22 03:57:33;;;;;;;10.20;7.30;;;;;;;4.00;99.25;96352.60;105395;1288;27689;-85
2022/12/22 04:00:06;;;;;;;12.70;8.80;;;;;;;3.95;99.24;96348.50;105466;1281;22495;-85
2022/12/22 04:02:40;;;;;;;10.60;7.00;;;;;;;3.90;99.38;96351.94;105491;1291;22492;-85
2022/12/22 04:05:13;;;;;;;10.50;7.00;;;;;;;3.88;99.60;96349.56;104054;1298;1799572;-85
2022/12/22 04:07:44;;;;;;;10.10;5.60;;;;;;;3.89;99.77;96351.27;105400;1282;22496;-85
2022/12/22 04:13:09;;;;;;;9.60;6.90;;;;;;;4.01;99.84;96352.94;105497;1293;22496;-85
2022/12/22 04:15:40;;;;;;;11.20;7.80;;;;;;;4.03;99.77;96354.16;105264;1296;138597;-85
2022/12/22 04:18:11;;;;;;;11.50;6.90;;;;;;;4.05;99.65;96356.13;105460;1304;22621;-85
2022/12/22 04:20:43;;;;;;;11.10;7.90;;;;;;;4.07;99.57;96355.63;105427;1296;22472;-85
2022/12/22 04:23:20;;;;;;;9.60;6.50;;;;;;;4.10;99.55;96352.65;105492;1296;22515;-85
2022/12/22 04:25:51;;;;;;;11.40;8.20;;;;;;;4.13;99.49;96355.46;104167;1303;1812108;-85
2022/12/22 04:28:24;;;;;;;9.40;5.80;;;;;;;4.18;99.71;96347.64;105498;1303;22466;-85
2022/12/22 04:30:56;;;;;;;12.10;6.30;;;;;;;4.25;99.71;96349.73;105489;1303;22490;-86
2022/12/22 04:33:29;;;;;;;9.10;5.50;;;;;;;4.22;99.42;96343.84;105615;1301;22716;-85
2022/12/22 04:36:00;;;;;;;10.20;7.30;;;;;;;4.23;99.47;96340.09;105306;1297;67263;-85
2022/12/22 04:38:35;;;;;;;12.50;8.50;;;;;;;4.23;99.46;96340.53;105461;1296;22490;-85
2022/12/22 04:41:07;;;;;;;10.00;7.20;;;;;;;4.24;99.26;96340.75;105392;1274;22467;-85
2022/12/22 04:43:39;;;;;;;10.00;6.20;;;;;;;4.24;99.25;96332.20;105459;1298;25500;-85
2022/12/22 04:46:11;;;;;;;10.00;6.20;;;;;;;4.25;99.16;96331.15;105325;1303;61084;-85
2022/12/22 04:48:44;;;;;;;10.70;6.50;;;;;;;4.23;99.02;96326.66;105414;1304;22479;-85
2022/12/22 04:51:16;;;;;;;9.00;6.10;;;;;;;4.21;98.94;96330.34;105434;1296;24414;-85
2022/12/22 04:53:48;;;;;;;18.40;10.70;;;;;;;4.19;98.81;96323.51;105445;1304;22471;-85
2022/12/22 04:56:19;;;;;;;14.40;7.40;;;;;;;4.16;98.69;96324.11;105325;1304;64060;-85
2022/12/22 04:58:50;;;;;;;15.80;9.50;;;;;;;4.13;98.66;96318.98;105472;1304;25701;-85
2022/12/22 05:01:21;;;;;;;20.70;10.70;;;;;;;4.13;98.64;96316.16;104569;1275;1264899;-85
2022/12/22 05:03:53;;;;;;;19.90;9.50;;;;;;;4.14;98.58;96312.39;105482;1288;22465;-85
2022/12/22 05:06:24;;;;;;;12.50;5.80;;;;;;;4.15;98.59;96314.77;105413;1303;97106;-85
2022/12/22 05:08:58;;;;;;;18.50;9.10;;;;;;;4.15;98.41;96310.52;105489;1303;25105;-85
2022/12/22 05:11:29;;;;;;;16.40;9.10;;;;;;;4.16;98.32;96308.73;105628;1303;22485;-85
2022/12/22 05:14:00;;;;;;;12.40;7.20;;;;;;;4.15;98.22;96310.81;105519;1303;22479;-85
2022/12/22 05:16:31;;;;;;;12.50;8.90;;;;;;;4.14;98.23;96312.08;105315;1302;127968;-85
2022/12/22 05:19:05;;;;;;;18.00;10.40;;;;;;;4.13;98.10;96315.16;105459;1291;22481;-85
2022/12/22 05:21:36;;;;;;;11.30;8.00;;;;;;;4.10;98.18;96310.35;105496;1304;22459;-85
2022/12/22 05:24:08;;;;;;;13.30;9.50;;;;;;;4.13;98.31;96313.63;105461;1298;22569;-85
2022/12/22 05:26:39;;;;;;;11.10;7.50;;;;;;;4.15;98.26;96312.66;105412;1303;48565;-86
2022/12/22 05:29:14;;;;;;;10.50;6.50;;;;;;;4.13;98.27;96306.04;105487;1304;22562;-85
2022/12/22 05:31:46;;;;;;;11.70;6.80;;;;;;;4.16;98.57;96300.66;105458;1304;22468;-85
2022/12/22 05:34:18;;;;;;;11.10;6.70;;;;;;;4.15;98.43;96293.88;105463;1291;29144;-84
2022/12/22 05:36:49;;;;;;;9.40;6.10;;;;;;;4.14;98.58;96286.48;105385;1298;79787;-85
2022/12/22 05:39:20;;;;;;;11.50;6.40;;;;;;;4.12;98.87;96285.77;105456;1298;22474;-85
2022/12/22 05:41:55;;;;;;;10.90;7.50;;;;;;;4.12;98.92;96289.40;105461;1304;24250;-85
2022/12/22 05:44:26;;;;;;;7.70;4.70;;;;;;;4.12;98.91;96289.07;105421;1304;67856;-85
2022/12/22 05:47:01;;;;;;;9.50;6.00;;;;;;;4.15;99.19;96291.88;105386;1294;55902;-84
2022/12/22 05:49:32;;;;;;;10.20;6.60;;;;;;;4.19;99.19;96288.52;105466;1297;22537;-85
2022/12/22 05:52:05;;;;;;;8.40;5.00;;;;;;;4.21;99.20;96290.36;105441;1304;22474;-85
2022/12/22 05:54:36;;;;;;;9.90;6.60;;;;;;;4.21;99.08;96284.48;105437;1296;54235;-85
2022/12/22 05:57:09;;;;;;;8.80;5.60;;;;;;;4.23;99.04;96277.90;104141;1297;2090045;-85
2022/12/22 05:59:40;;;;;;;10.20;6.40;;;;;;;4.28;99.45;96279.70;105582;1301;22470;-85
2022/12/22 06:02:15;;;;;;;10.30;5.50;;;;;;;4.34;99.27;96279.44;105651;1303;22457;-85
2022/12/22 06:04:47;;;;;;;8.60;5.20;;;;;;;4.36;99.33;96273.23;105533;1297;62574;-85
2022/12/22 06:07:18;;;;;;;7.20;4.50;;;;;;;4.39;99.20;96274.00;105486;1303;45255;-85
2022/12/22 06:09:51;;;;;;;9.40;5.30;;;;;;;4.42;99.24;96266.63;105509;1295;25268;-85
2022/12/22 06:12:23;;;;;;;6.50;3.70;;;;;;;4.44;99.10;96267.80;105492;1289;22478;-85
2022/12/22 06:14:56;;;;;;;6.70;4.60;;;;;;;4.46;99.00;96271.28;105429;1301;103124;-85
2022/12/22 06:17:27;;;;;;;7.10;4.70;;;;;;;4.48;98.99;96269.19;105457;1304;24289;-85
2022/12/22 06:20:01;;;;;;;7.40;4.00;;;;;;;4.50;99.06;96261.98;105478;1304;22518;-85
2022/12/22 06:22:32;;;;;;;8.50;4.00;;;;;;;4.53;98.89;96274.56;105473;1304;22473;-85
2022/12/22 06:25:11;;;;;;;6.30;4.10;;;;;;;4.52;98.84;96276.02;105354;1303;56192;-84
2022/12/22 06:27:42;;;;;;;8.80;5.40;;;;;;;4.53;98.82;96282.86;105474;1304;22524;-84
2022/12/22 06:30:16;;;;;;;7.50;3.80;;;;;;;4.56;98.81;96287.02;105497;1298;22461;-84
2022/12/22 06:32:47;;;;;;;7.80;4.80;;;;;;;4.57;98.76;96284.78;105491;1289;25341;-84
2022/12/22 06:35:20;;;;;;;5.60;3.80;;;;;;;4.55;98.59;96290.33;105367;1288;48900;-84
2022/12/22 06:37:52;;;;;;;5.40;3.50;;;;;;;4.50;98.55;96282.33;105494;1287;22479;-85
2022/12/22 06:40:23;;;;;;;7.90;4.80;;;;;;;4.50;98.63;96283.49;105490;1304;22481;-85
2022/12/22 06:43:10;;;;;;;9.70;6.10;;;;;;;4.49;98.51;96280.38;105493;1304;25250;-85
2022/12/22 06:45:44;;;;;;;7.70;4.60;;;;;;;4.40;98.29;96282.14;105340;1304;59678;-84
2022/12/22 06:48:18;;;;;;;9.70;6.00;;;;;;;4.32;98.42;96279.37;105486;1293;22502;-85
2022/12/22 06:50:58;;;;;;;7.10;4.30;;;;;;;4.29;98.27;96278.39;105482;1304;22491;-85
2022/12/22 06:53:29;;;;;;;8.50;6.10;;;;;;;4.28;98.77;96269.58;105472;1293;22465;-85
2022/12/22 06:56:02;;;;;;;3.90;2.80;;;;;;;4.29;98.82;96266.07;105347;1298;70294;-86
2022/12/22 06:58:33;;;;;;;5.60;2.80;;;;;;;4.35;99.05;96262.46;105464;1304;22530;-84
2022/12/22 07:01:07;;;;;;;5.20;3.10;;;;;;;4.43;99.25;96259.91;105506;1304;23536;-85
2022/12/22 07:03:38;;;;;;;6.60;4.00;;;;;;;4.52;99.11;96266.09;105474;1304;22485;-86
2022/12/22 07:06:10;;;;;;;8.10;4.00;;;;;;;4.55;98.94;96273.68;103933;1282;2079605;-86
2022/12/22 07:08:41;;;;;;;5.90;3.90;;;;;;;4.55;98.71;96270.42;105591;1298;22473;-86
2022/12/22 07:11:15;;;;;;;10.70;5.50;;;;;;;4.52;98.59;96276.02;105659;1298;22467;-86
2022/12/22 07:13:47;;;;;;;9.00;4.80;;;;;;;4.48;98.45;96271.77;105618;1304;23225;-86
2022/12/22 07:16:18;;;;;;;7.80;4.30;;;;;;;4.48;98.75;96265.52;105466;1304;65028;-86
2022/12/22 07:18:50;;;;;;;4.10;2.70;;;;;;;4.51;98.74;96271.96;105582;1288;22473;-86
2022/12/22 07:21:27;;;;;;;8.80;5.90;;;;;;;4.53;98.82;96277.65;105476;1300;22460;-86
2022/12/22 07:24:02;;;;;;;6.40;4.10;;;;;;;4.54;98.70;96273.41;105497;1296;22463;-85
2022/12/22 07:26:37;;;;;;;9.80;5.90;;;;;;;4.56;98.67;96277.89;105463;1303;51218;-85
2022/12/22 07:29:08;;;;;;;9.30;5.50;;;;;;;4.56;98.38;96277.68;105417;1304;22470;-85
2022/12/22 07:31:41;;;;;;;8.30;5.20;;;;;;;4.52;98.37;96277.75;105478;1296;22489;-85
2022/12/22 07:34:17;;;;;;;7.10;4.30;;;;;;;4.50;98.40;96280.50;105413;1274;73984;-84
2022/12/22 07:36:54;;;;;;;7.80;4.20;;;;;;;4.53;98.46;96276.50;105404;1304;57443;-85
2022/12/22 07:39:25;;;;;;;7.20;4.20;;;;;;;4.58;98.49;96277.80;105482;1304;22479;-85
2022/12/22 07:44:50;;;;;;;7.70;4.70;;;;;;;4.63;98.26;96266.14;105432;1291;34490;-85
2022/12/22 07:47:24;;;;;;;9.50;6.30;;;;;;;4.64;98.16;96268.50;105425;1304;47579;-85
2022/12/22 07:52:46;;;;;;;8.20;5.30;;;;;;;4.64;98.10;96273.34;105453;1278;22465;-85
2022/12/22 07:55:19;;;;;;;7.30;3.90;;;;;;;4.63;98.03;96266.39;105452;1303;61963;-85
2022/12/22 07:57:54;;;;;;;6.40;4.20;;;;;;;4.62;97.97;96273.48;105701;1303;22484;-86
2022/12/22 08:00:29;;;;;;;4.60;2.90;;;;;;;4.67;98.27;96264.34;105516;1288;23772;-85
2022/12/22 08:03:01;;;;;;;7.80;4.70;;;;;;;4.73;98.09;96270.55;105478;1301;22500;-85
2022/12/22 08:05:32;;;;;;;5.70;2.90;;;;;;;4.74;97.75;96272.54;105353;1284;90768;-86
2022/12/22 08:08:09;;;;;;;4.60;3.20;;;;;;;4.76;97.70;96269.10;105503;1303;25723;-85
2022/12/22 08:10:42;;;;;;;5.60;3.80;;;;;;;4.79;97.74;96266.45;105629;1278;22470;-86
2022/12/22 08:13:14;;;;;;;6.40;3.60;;;;;;;4.76;97.51;96262.01;105538;1299;22468;-85
2022/12/22 08:15:45;;;;;;;5.60;3.60;;;;;;;4.75;97.31;96264.73;105393;1301;60479;-85
2022/12/22 08:18:16;;;;;;;4.60;3.00;;;;;;;4.75;97.29;96262.25;105454;1290;22491;-85
2022/12/22 08:20:54;;;;;;;6.10;4.10;;;;;;;4.77;97.41;96260.39;105459;1304;22653;-86
2022/12/22 08:23:30;;;;;;;7.80;4.20;;;;;;;4.81;97.21;96261.11;105455;1304;22483;-86
2022/12/22 08:26:06;;;;;;;6.00;4.20;;;;;;;4.84;97.23;96255.30;105459;1303;150947;-85
2022/12/22 08:28:44;;;;;;;7.90;4.40;;;;;;;4.85;96.99;96238.56;105694;1298;22518;-86
2022/12/22 08:31:16;;;;;;;5.60;4.10;;;;;;;4.88;96.90;96230.02;105712;1289;22458;-86
2022/12/22 08:33:47;;;;;;;5.20;3.30;;;;;;;4.89;96.66;96234.22;105505;1303;22513;-86
2022/12/22 08:36:19;;;;;;;6.10;3.80;;;;;;;4.90;96.62;96231.48;105334;1304;60682;-85
2022/12/22 08:38:53;;;;;;;6.20;4.00;;;;;;;4.96;96.63;96228.09;105507;1304;25366;-86
2022/12/22 08:44:10;;;;;;;6.00;3.70;;;;;;;5.15;96.14;96234.84;105481;1304;22560;-86
2022/12/22 08:46:41;;;;;;;6.80;3.40;;;;;;;5.19;95.84;96238.21;105561;1296;66670;-86
2022/12/22 08:49:12;;;;;;;5.50;3.70;;;;;;;5.22;95.69;96248.08;105454;1295;22474;-86
2022/12/22 08:51:44;;;;;;;5.10;3.20;;;;;;;5.26;95.51;96238.17;105519;1279;22547;-87
2022/12/22 08:54:20;;;;;;;6.70;4.30;;;;;;;5.23;95.15;96235.33;105531;1303;36260;-86
2022/12/22 08:56:57;;;;;;;5.90;4.10;;;;;;;5.21;95.00;96229.05;105356;1285;134176;-86
2022/12/22 08:59:31;;;;;;;6.00;4.10;;;;;;;5.20;94.96;96225.66;105473;1291;22530;-86
2022/12/22 09:02:04;;;;;;;6.90;4.50;;;;;;;5.20;94.97;96229.86;105481;1298;22586;-86
2022/12/22 09:04:36;;;;;;;7.20;4.50;;;;;;;5.21;95.00;96230.05;105377;1305;33693;-87
2022/12/22 09:07:10;;;;;;;6.30;3.90;;;;;;;5.25;94.90;96223.08;105440;1288;41354;-87
2022/12/22 09:09:53;;;;;;;4.70;3.60;;;;;;;5.31;94.85;96227.16;105492;1297;22546;-87
2022/12/22 09:12:24;;;;;;;5.70;3.20;;;;;;;5.39;94.57;96223.27;105487;1304;24267;-87
2022/12/22 09:14:58;;;;;;;4.80;3.60;;;;;;;5.47;94.56;96218.58;105446;1304;43380;-87
2022/12/22 09:17:29;;;;;;;6.70;3.20;;;;;;;5.54;94.30;96215.77;105525;1303;22478;-87
2022/12/22 09:20:00;;;;;;;7.60;4.70;;;;;;;5.59;93.99;96214.22;105490;1298;22581;-87
2022/12/22 09:22:34;;;;;;;6.90;4.60;;;;;;;5.62;93.71;96210.35;105502;1303;22528;-87
2022/12/22 09:25:08;;;;;;;7.90;5.10;;;;;;;5.67;93.55;96211.64;105427;1303;92600;-87
2022/12/22 09:27:39;;;;;;;6.40;4.40;;;;;;;5.73;93.47;96204.50;105502;1304;26520;-87
2022/12/22 09:30:12;;;;;;;5.70;3.40;;;;;;;5.79;93.15;96203.70;105474;1296;22587;-87
2022/12/22 09:32:46;;;;;;;7.20;4.60;;;;;;;5.82;92.83;96195.77;105505;1298;22499;-87
2022/12/22 09:35:17;;;;;;;7.50;4.60;;;;;;;5.87;92.71;96198.86;103670;1282;2408908;-87
2022/12/22 09:37:52;;;;;;;7.00;4.00;;;;;;;5.90;92.50;96190.90;105468;1281;25272;-88
2022/12/22 09:40:23;;;;;;;8.10;4.40;;;;;;;5.91;92.36;96185.88;105491;1304;25267;-87
2022/12/22 09:42:58;;;;;;;7.30;5.10;;;;;;;5.92;92.19;96187.25;105480;1288;25221;-87
2022/12/22 09:45:39;;;;;;;6.70;4.20;;;;;;;5.94;92.15;96176.52;103577;1289;2566411;-87
2022/12/22 09:48:14;;;;;;;7.00;4.00;;;;;;;5.94;91.81;96174.95;105528;1297;25576;-87
2022/12/22 09:50:45;;;;;;;6.50;3.80;;;;;;;5.94;91.63;96174.10;105479;1288;22455;-86
2022/12/22 09:53:21;;;;;;;7.00;4.20;;;;;;;5.99;91.74;96172.42;105482;1278;22511;-86
2022/12/22 09:55:53;;;;;;;6.70;4.60;;;;;;;6.07;91.74;96164.77;105347;1296;86179;-86
2022/12/22 09:58:28;;;;;;;6.80;4.50;;;;;;;6.15;91.65;96161.67;105449;1304;22691;-86
2022/12/22 10:01:19;;;;;;;7.50;3.90;;;;;;;6.27;91.16;96159.64;105477;1304;22673;-86
2022/12/22 10:03:57;;;;;;;6.00;4.00;;;;;;;6.46;91.03;96154.92;105472;1304;22471;-87
2022/12/22 10:06:39;;;;;;;6.00;3.40;;;;;;;6.71;90.81;96144.55;105361;1306;50235;-87
2022/12/22 10:09:19;;;;;;;6.30;4.10;;;;;;;6.92;89.92;96142.30;105495;1304;24246;-87
2022/12/22 10:11:58;;;;;;;5.90;3.00;;;;;;;7.05;89.51;96133.11;105497;1306;22540;-87
2022/12/22 10:14:33;;;;;;;5.90;3.40;;;;;;;7.14;88.88;96131.03;105497;1285;43294;-87
2022/12/22 10:17:20;;;;;;;6.50;4.10;;;;;;;7.19;88.10;96132.73;105452;1305;26455;-87
2022/12/22 10:19:54;;;;;;;6.60;3.90;;;;;;;7.31;88.22;96132.47;105488;1298;22487;-86
2022/12/22 10:22:35;;;;;;;6.30;4.20;;;;;;;7.44;87.68;96126.10;105495;1304;24340;-86
2022/12/22 10:25:25;;;;;;;6.10;4.10;;;;;;;7.61;87.38;96127.45;105538;1302;23777;-84
2022/12/22 10:27:58;;;;;;;6.30;4.40;;;;;;;7.66;86.99;96125.22;105550;1302;22513;-86
2022/12/22 10:30:35;;;;;;;6.80;4.40;;;;;;;7.67;86.92;96122.30;105517;1303;22513;-86
2022/12/22 10:33:12;;;;;;;5.50;3.60;;;;;;;7.68;86.68;96118.98;105669;1279;22448;-87
2022/12/22 10:35:51;;;;;;;6.00;3.80;;;;;;;7.70;86.62;96116.42;105554;1303;22593;-86
2022/12/22 10:38:27;;;;;;;6.10;3.70;;;;;;;7.71;86.53;96113.20;105478;1301;22514;-86
2022/12/22 10:41:08;;;;;;;5.50;3.70;;;;;;;7.68;86.41;96112.64;105467;1294;22494;-86
2022/12/22 10:43:48;;;;;;;5.60;3.50;;;;;;;7.69;86.51;96107.52;105452;1288;22503;-87
2022/12/22 10:46:29;;;;;;;4.30;2.90;;;;;;;7.65;85.71;96100.42;104153;1280;1769987;-87
2022/12/22 10:49:13;;;;;;;5.00;3.30;;;;;;;7.57;85.45;96103.40;105472;1305;22516;-86
2022/12/22 10:51:53;;;;;;;6.40;3.90;;;;;;;7.50;85.30;96098.11;105460;1295;22468;-86
2022/12/22 10:54:33;;;;;;;5.90;4.00;;;;;;;7.40;85.17;96096.67;105448;1288;44550;-86
2022/12/22 10:57:26;;;;;;;6.60;4.30;;;;;;;7.30;85.09;96095.35;104161;1289;1799092;-87
2022/12/22 11:00:02;;;;;;;7.90;4.30;;;;;;;7.21;85.25;96082.30;105483;1304;22502;-86
2022/12/22 11:02:37;;;;;;;6.90;4.70;;;;;;;7.13;85.11;96082.27;105493;1294;22505;-86
2022/12/22 11:05:12;;;;;;;5.00;2.90;;;;;;;7.10;85.39;96080.08;105439;1281;22471;-86
2022/12/22 11:07:45;;;;;;;7.00;4.10;;;;;;;7.05;85.28;96075.66;105467;1295;25332;-86
2022/12/22 11:10:38;;;;;;;7.50;4.90;;;;;;;6.96;85.35;96067.63;105592;1303;22630;-86
2022/12/22 11:13:30;;;;;;;7.50;4.80;;;;;;;6.91;85.65;96066.86;105518;1303;22524;-87
2022/12/22 11:16:11;;;;;;;8.70;5.10;;;;;;;6.93;85.96;96067.48;105453;1298;22505;-86
2022/12/22 11:18:55;;;;;;;10.00;6.30;;;;;;;6.89;85.80;96061.88;105444;1305;22952;-86
2022/12/22 11:21:35;;;;;;;8.30;5.70;;;;;;;6.86;85.71;96062.42;105482;1294;25308;-86
2022/12/22 11:24:23;;;;;;;9.20;6.20;;;;;;;6.84;85.96;96058.80;105413;1306;24545;-86
2022/12/22 11:27:05;;;;;;;9.20;5.90;;;;;;;6.80;85.91;96065.92;105402;1304;84139;-86
2022/12/22 11:30:01;;;;;;;10.00;5.90;;;;;;;6.79;85.98;96063.41;105473;1303;22585;-86
2022/12/22 11:32:59;;;;;;;11.50;6.90;;;;;;;6.83;85.93;96060.43;105491;1303;22461;-85
2022/12/22 11:35:45;;;;;;;8.70;5.70;;;;;;;6.95;85.93;96054.61;103836;1303;2092103;-86
2022/12/22 11:38:25;;;;;;;9.60;6.60;;;;;;;7.09;85.79;96050.45;105438;1287;24360;-87
2022/12/22 11:41:04;;;;;;;8.70;5.60;;;;;;;7.21;85.28;96044.03;105536;1304;22466;-86
2022/12/22 11:43:52;;;;;;;8.90;5.90;;;;;;;7.27;84.60;96046.68;105429;1296;22590;-86
2022/12/22 11:46:32;;;;;;;9.40;6.20;;;;;;;7.34;84.80;96049.55;103573;1306;2566458;-86
2022/12/22 11:49:36;;;;;;;9.00;6.00;;;;;;;7.46;84.48;96045.59;105460;1306;23661;-86
2022/12/22 11:52:22;;;;;;;8.40;5.30;;;;;;;7.58;84.15;96044.52;105465;1289;22490;-86
2022/12/22 11:55:20;;;;;;;9.40;5.90;;;;;;;7.65;83.51;96043.70;105443;1305;25401;-86
2022/12/22 11:58:11;;;;;;;8.10;5.30;;;;;;;7.63;83.16;96042.87;105463;1306;22506;-87
2022/12/22 12:00:59;;;;;;;10.00;6.30;;;;;;;7.43;82.83;96036.48;105441;1294;25088;-86
2022/12/22 12:04:07;;;;;;;8.50;5.80;;;;;;;7.53;83.41;96031.27;105501;1305;22489;-86
2022/12/22 12:06:58;;;;;;;8.90;5.70;;;;;;;7.68;83.48;96030.27;105365;1303;24449;-86
2022/12/22 12:09:44;;;;;;;8.60;5.10;;;;;;;7.82;83.20;96019.05;105483;1303;22478;-86
2022/12/22 12:12:27;;;;;;;7.70;3.90;;;;;;;7.98;82.20;96021.78;105449;1303;22508;-86
2022/12/22 12:15:14;;;;;;;6.60;4.50;;;;;;;7.94;81.67;96020.66;105479;1295;22488;-87
2022/12/22 12:18:09;;;;;;;7.70;4.90;;;;;;;7.83;81.64;96013.70;104114;1303;1987127;-87
2022/12/22 12:20:53;;;;;;;6.20;4.40;;;;;;;7.84;81.69;96016.02;105478;1303;22455;-87
2022/12/22 12:23:53;;;;;;;6.00;4.10;;;;;;;7.72;81.59;96013.27;105474;1299;22455;-86
2022/12/22 12:26:33;;;;;;;7.40;4.80;;;;;;;7.52;81.60;96002.63;105383;1303;80859;-86
2022/12/22 12:29:13;;;;;;;7.10;4.60;;;;;;;7.52;82.15;96004.20;105475;1285;22604;-86
2022/12/22 12:31:45;;;;;;;;;;;;;;;7.66;81.87;95994.10;105513;1304;22443;-87
2022/12/22 12:34:18;;;;;;;7.50;4.60;;;;;;;7.65;81.60;96009.41;105420;1306;25834;-87
2022/12/22 12:36:56;;;;;;;6.00;4.00;;;;;;;7.66;81.71;95998.21;105406;1291;22482;-86
2022/12/22 12:39:37;;;;;;;7.70;5.20;;;;;;;7.64;81.79;96001.98;105504;1287;22601;-86
2022/12/22 12:42:22;;;;;;;6.30;4.70;;;;;;;7.64;81.73;96001.13;105450;1304;22580;-86
2022/12/22 12:44:55;;;;;;;6.40;3.90;;;;;;;7.62;81.67;95991.02;105481;1293;22477;-86
2022/12/22 12:47:30;;;;;;;7.20;4.20;;;;;;;7.66;81.66;96001.85;105426;1294;22602;-85
2022/12/22 12:50:05;;;;;;;7.20;4.60;;;;;;;7.59;81.37;95986.07;105505;1303;22554;-85
2022/12/22 12:53:06;;;;;;;8.90;5.60;;;;;;;7.45;81.50;95990.60;105520;1295;22571;-86
2022/12/22 12:55:54;;;;;;;9.10;4.40;;;;;;;7.33;82.18;95993.98;105399;1304;30980;-85
2022/12/22 12:58:56;;;;;;;8.70;6.40;;;;;;;7.29;82.49;95989.77;105516;1300;22474;-86
2022/12/22 13:02:03;;;;;;;8.00;4.40;;;;;;;7.32;83.06;95988.34;105463;1301;22480;-86
2022/12/22 13:05:14;;;;;;;7.00;5.10;;;;;;;7.45;83.27;95990.75;105410;1303;22515;-87
2022/12/22 13:08:22;;;;;;;9.50;5.20;;;;;;;7.59;83.11;95991.40;103463;1304;2688144;-87
2022/12/22 13:11:21;;;;;;;8.40;5.60;;;;;;;7.67;82.74;95984.11;105450;1302;22527;-87
2022/12/22 13:13:53;;;;;;;7.60;5.70;;;;;;;7.68;82.81;95981.15;105479;1304;25484;-87
2022/12/22 13:16:36;;;;;;;8.40;4.80;;;;;;;7.63;82.64;95980.49;105431;1289;36248;-86
2022/12/22 13:19:19;;;;;;;10.10;6.40;;;;;;;7.48;82.60;95976.70;105555;1306;22497;-87
2022/12/22 13:21:50;;;;;;;9.60;5.10;;;;;;;7.29;83.00;95975.27;105472;1289;22539;-87
2022/12/22 13:24:30;;;;;;;9.00;6.10;;;;;;;7.16;83.50;95975.35;105429;1285;22932;-87
2022/12/22 13:27:10;;;;;;;8.50;4.80;;;;;;;7.03;83.71;95970.03;105622;1302;23695;-86
2022/12/22 13:29:47;;;;;;;7.30;4.40;;;;;;;6.91;84.43;95967.14;105478;1303;25407;-87
2022/12/22 13:32:31;;;;;;;10.90;6.30;;;;;;;6.84;84.99;95974.59;105498;1303;24273;-87
2022/12/22 13:35:14;;;;;;;9.80;6.40;;;;;;;6.80;85.16;95974.73;105468;1281;24031;-86
2022/12/22 13:37:48;;;;;;;7.10;4.90;;;;;;;6.76;85.34;95965.93;105440;1304;24330;-87
2022/12/22 13:40:22;;;;;;;9.60;6.10;;;;;;;6.71;85.48;95963.52;105542;1305;22500;-87
2022/12/22 13:42:56;;;;;;;10.10;5.90;;;;;;;6.65;85.93;95959.92;105566;1304;23221;-85
2022/12/22 13:45:32;;;;;;;8.30;5.30;;;;;;;6.63;85.98;95968.73;105461;1306;28669;-86
2022/12/22 13:48:13;;;;;;;7.70;4.10;;;;;;;6.61;86.17;95976.61;105474;1302;25501;-86
2022/12/22 13:50:48;;;;;;;8.20;5.20;;;;;;;6.64;86.65;95986.84;105449;1306;22497;-86
2022/12/22 13:53:28;;;;;;;8.70;5.50;;;;;;;6.71;86.44;95982.70;105474;1280;25537;-86
2022/12/22 13:56:00;;;;;;;7.30;4.80;;;;;;;6.75;86.39;95969.52;105479;1298;82514;-87
2022/12/22 13:58:36;;;;;;;9.30;5.80;;;;;;;6.76;86.14;95963.20;105679;1294;22540;-86
2022/12/22 14:01:17;;;;;;;7.50;4.60;;;;;;;6.74;86.15;95974.09;105728;1294;22466;-87
2022/12/22 14:03:57;;;;;;;9.20;5.10;;;;;;;6.75;86.22;95973.09;105714;1300;22479;-87
2022/12/22 14:06:29;;;;;;;;;;;;;;;6.70;86.10;95963.52;105406;1303;38502;-87
2022/12/22 14:09:15;;;;;;;9.10;4.60;;;;;;;6.67;86.17;95964.13;105483;1304;22493;-87
2022/12/22 14:11:49;;;;;;;5.20;3.50;;;;;;;6.64;86.24;95961.98;105447;1294;22538;-87
2022/12/22 14:14:25;;;;;;;5.80;3.70;;;;;;;6.64;86.23;95955.83;105519;1306;22525;-88
2022/12/22 14:16:58;;;;;;;7.60;4.40;;;;;;;6.60;86.23;95938.27;105444;1303;22543;-86
2022/12/22 14:19:34;;;;;;;8.60;5.30;;;;;;;6.53;86.15;95946.52;105463;1291;22665;-86
2022/12/22 14:22:08;;;;;;;5.60;3.90;;;;;;;6.44;86.38;95936.60;105468;1304;22470;-87
2022/12/22 14:24:53;;;;;;;8.00;5.20;;;;;;;6.37;86.48;95947.79;105450;1304;23088;-86
2022/12/22 14:27:33;;;;;;;7.30;5.30;;;;;;;6.33;86.68;95942.95;105448;1306;22601;-87
2022/12/22 14:30:04;;;;;;;;;;;;;;;6.25;86.90;95929.06;105445;1305;22452;-87
2022/12/22 14:32:41;;;;;;;8.80;4.30;;;;;;;6.25;87.17;95944.86;105446;1306;22498;-87
2022/12/22 14:35:28;;;;;;;7.00;4.50;;;;;;;6.19;87.09;95934.66;105415;1298;22520;-87
2022/12/22 14:38:24;;;;;;;6.70;4.20;;;;;;;6.14;87.45;95945.04;105510;1297;28101;-88
2022/12/22 14:40:56;;;;;;;8.00;3.50;;;;;;;6.18;87.79;95935.55;105556;1306;22688;-88
2022/12/22 14:43:32;;;;;;;6.40;3.60;;;;;;;6.26;87.68;95937.90;105608;1303;22511;-87
2022/12/22 14:46:07;;;;;;;5.10;3.30;;;;;;;6.26;87.43;95933.70;105513;1303;24408;-87
2022/12/22 14:48:45;;;;;;;6.30;3.80;;;;;;;6.27;87.72;95932.95;105504;1298;22504;-87
2022/12/22 14:51:20;;;;;;;10.10;4.90;;;;;;;6.25;87.63;95935.70;105505;1288;22467;-87
2022/12/22 14:53:55;;;;;;;7.50;4.10;;;;;;;6.24;87.63;95932.60;105469;1298;22463;-87
2022/12/22 14:56:28;;;;;;;6.50;3.80;;;;;;;6.21;87.67;95930.49;105430;1282;24300;-88
2022/12/22 14:59:23;;;;;;;6.20;3.40;;;;;;;6.16;87.66;95930.81;105459;1304;22506;-87
2022/12/22 15:02:02;;;;;;;5.40;3.40;;;;;;;6.14;88.00;95926.92;105470;1291;24272;-87
2022/12/22 15:04:34;;;;;;;6.30;3.20;;;;;;;6.17;88.07;95926.12;105384;1306;124426;-86
2022/12/22 15:07:20;;;;;;;6.40;2.90;;;;;;;6.19;88.07;95919.13;105434;1290;22493;-86
2022/12/22 15:09:52;;;;;;;6.20;3.90;;;;;;;6.20;88.22;95918.34;105455;1305;22492;-87
2022/12/22 15:12:23;;;;;;;5.60;3.30;;;;;;;6.17;88.11;95918.91;105449;1304;22478;-86
2022/12/22 15:14:55;;;;;;;4.50;2.80;;;;;;;6.17;88.19;95916.17;105445;1305;23706;-86
2022/12/22 15:17:26;;;;;;;5.00;3.80;;;;;;;6.25;88.40;95919.85;105419;1306;27040;-87
2022/12/22 15:19:59;;;;;;;6.50;3.90;;;;;;;6.31;88.04;95923.51;105469;1305;22464;-87
2022/12/22 15:22:31;;;;;;;4.50;3.20;;;;;;;6.29;87.94;95917.94;105449;1304;22473;-87
2022/12/22 15:25:02;;;;;;;4.90;2.90;;;;;;;6.26;87.93;95925.95;105468;1304;29442;-86
2022/12/22 15:27:33;;;;;;;7.30;4.10;;;;;;;6.29;88.03;95919.98;105477;1298;99206;-87
2022/12/22 15:30:07;;;;;;;6.50;3.20;;;;;;;6.29;87.98;95923.20;105501;1288;25239;-87
2022/12/22 15:32:43;;;;;;;7.00;3.80;;;;;;;6.30;88.03;95920.71;105458;1302;23336;-87
2022/12/22 15:35:25;;;;;;;5.60;3.90;;;;;;;6.29;87.86;95925.41;105490;1288;22469;-87
2022/12/22 15:37:57;;;;;;;7.90;5.20;;;;;;;6.29;88.00;95929.58;105418;1279;50319;-88
2022/12/22 15:40:29;;;;;;;8.10;4.20;;;;;;;6.27;87.83;95933.33;105438;1306;22477;-87
2022/12/22 15:43:00;;;;;;;8.20;4.00;;;;;;;6.23;88.01;95917.13;105471;1306;23178;-87
2022/12/22 15:45:34;;;;;;;6.00;3.90;;;;;;;6.30;88.30;95910.36;105459;1304;22494;-87
2022/12/22 15:48:11;;;;;;;8.30;3.10;;;;;;;6.35;88.18;95904.09;105447;1304;22491;-86
2022/12/22 15:50:44;;;;;;;6.80;3.10;;;;;;;6.39;88.18;95916.50;105511;1301;24325;-86
2022/12/22 15:53:21;;;;;;;6.90;4.70;;;;;;;6.41;87.94;95913.17;105498;1304;22468;-87
2022/12/22 15:55:54;;;;;;;6.90;4.20;;;;;;;6.43;87.80;95905.31;105408;1303;27813;-86
2022/12/22 15:58:31;;;;;;;7.00;3.00;;;;;;;6.42;87.67;95919.70;105508;1306;22489;-87